createdAt,value
2023-05-09T00:01:14.045Z,100.00
2023-05-09T00:03:43.884Z,100.00
2023-05-09T00:06:13.477Z,100.00
2023-05-09T00:08:41.602Z,100.00
2023-05-09T00:11:09.559Z,100.00
2023-05-09T00:13:37.433Z,100.00
2023-05-09T00:16:06.006Z,100.00
2023-05-09T00:18:34.088Z,100.00
2023-05-09T00:21:04.080Z,100.00
2023-05-09T00:23:32.068Z,100.00
2023-05-09T00:26:00.141Z,100.00
2023-05-09T00:28:28.278Z,100.00
2023-05-09T00:30:56.801Z,100.00
2023-05-09T00:33:26.838Z,100.00
2023-05-09T00:35:54.783Z,100.00
2023-05-09T00:38:24.538Z,100.00
2023-05-09T00:40:52.348Z,100.00
2023-05-09T00:43:20.107Z,100.00
2023-05-09T00:45:48.624Z,100.00
2023-05-09T00:48:17.213Z,100.00
2023-05-09T00:50:45.148Z,100.00
2023-05-09T00:53:12.943Z,100.00
2023-05-09T00:55:42.214Z,100.00
2023-05-09T00:58:10.065Z,100.00
2023-05-09T01:00:38.096Z,100.00
2023-05-09T01:03:06.468Z,100.00
2023-05-09T01:05:45.205Z,100.00
2023-05-09T01:08:22.799Z,100.00
2023-05-09T01:10:59.615Z,100.00
2023-05-09T01:13:33.161Z,100.00
2023-05-09T01:16:06.379Z,100.00
2023-05-09T01:18:41.355Z,100.00
2023-05-09T01:21:12.863Z,100.00
2023-05-09T01:24:10.400Z,100.00
2023-05-09T01:26:46.563Z,100.00
2023-05-09T01:29:36.161Z,100.00
2023-05-09T01:32:07.113Z,100.00
2023-05-09T01:34:36.083Z,100.00
2023-05-09T01:37:06.682Z,100.00
2023-05-09T01:39:37.142Z,100.00
2023-05-09T01:42:08.300Z,100.00
2023-05-09T01:44:40.976Z,100.00
2023-05-09T01:47:09.775Z,100.00
2023-05-09T01:49:39.702Z,100.00
2023-05-09T01:52:10.001Z,100.00
2023-05-09T01:54:40.139Z,100.00
2023-05-09T01:57:09.152Z,100.00
2023-05-09T01:59:42.127Z,100.00
2023-05-09T02:02:10.495Z,100.00
2023-05-09T02:04:38.946Z,100.00
2023-05-09T02:07:08.060Z,100.00
2023-05-09T02:09:35.941Z,100.00
2023-05-09T02:12:04.544Z,100.00
2023-05-09T02:14:32.906Z,100.00
2023-05-09T02:17:06.300Z,100.00
2023-05-09T02:19:35.306Z,100.00
2023-05-09T02:22:04.815Z,100.00
2023-05-09T02:24:34.153Z,100.00
2023-05-09T02:27:03.671Z,100.00
2023-05-09T02:29:39.865Z,100.00
2023-05-09T02:32:11.304Z,100.00
2023-05-09T02:34:40.404Z,100.00
2023-05-09T02:37:08.848Z,100.00
2023-05-09T02:39:37.056Z,100.00
2023-05-09T02:42:07.926Z,100.00
2023-05-09T02:44:36.229Z,100.00
2023-05-09T02:47:05.062Z,100.00
2023-05-09T02:49:34.369Z,100.00
2023-05-09T02:52:04.121Z,100.00
2023-05-09T02:54:31.895Z,100.00
2023-05-09T02:57:00.142Z,100.00
2023-05-09T02:59:28.235Z,100.00
2023-05-09T03:01:57.265Z,100.00
2023-05-09T03:04:25.829Z,100.00
2023-05-09T03:06:55.153Z,100.00
2023-05-09T03:09:23.462Z,100.00
2023-05-09T03:11:51.466Z,100.00
2023-05-09T03:14:19.294Z,100.00
2023-05-09T03:16:47.065Z,100.00
2023-05-09T03:19:23.113Z,100.00
2023-05-09T03:21:50.972Z,100.00
2023-05-09T03:24:20.294Z,100.00
2023-05-09T03:26:48.690Z,100.00
2023-05-09T03:29:16.597Z,100.00
2023-05-09T03:31:44.447Z,100.00
2023-05-09T03:34:15.235Z,100.00
2023-05-09T03:36:44.490Z,100.00
2023-05-09T03:39:14.150Z,100.00
2023-05-09T03:41:46.090Z,100.00
2023-05-09T03:44:14.364Z,100.00
2023-05-09T03:46:42.195Z,100.00
2023-05-09T03:49:10.562Z,100.00
2023-05-09T03:51:39.949Z,100.00
2023-05-09T03:54:13.412Z,100.00
2023-05-09T03:56:41.651Z,100.00
2023-05-09T03:59:11.604Z,100.00
2023-05-09T04:01:40.935Z,100.00
2023-05-09T04:04:09.536Z,100.00
2023-05-09T04:06:37.906Z,100.00
2023-05-09T04:09:07.926Z,100.00
2023-05-09T04:11:35.704Z,100.00
2023-05-09T04:14:07.108Z,100.00
2023-05-09T04:16:38.299Z,100.00
2023-05-09T04:19:07.165Z,100.00
2023-05-09T04:21:36.555Z,100.00
2023-05-09T04:24:05.818Z,100.00
2023-05-09T04:26:39.321Z,100.00
2023-05-09T04:29:10.459Z,100.00
2023-05-09T04:31:39.758Z,100.00
2023-05-09T04:34:09.355Z,100.00
2023-05-09T04:36:39.285Z,100.00
2023-05-09T04:39:08.738Z,100.00
2023-05-09T04:41:37.730Z,100.00
2023-05-09T04:44:06.233Z,100.00
2023-05-09T04:46:34.208Z,100.00
2023-05-09T04:49:03.731Z,100.00
2023-05-09T04:51:31.955Z,100.00
2023-05-09T04:54:00.197Z,100.00
2023-05-09T04:56:33.064Z,100.00
2023-05-09T04:59:03.815Z,100.00
2023-05-09T05:01:31.991Z,100.00
2023-05-09T05:04:01.058Z,100.00
2023-05-09T05:06:32.892Z,100.00
2023-05-09T05:09:01.335Z,100.00
2023-05-09T05:11:32.387Z,100.00
2023-05-09T05:14:00.611Z,100.00
2023-05-09T05:16:28.536Z,100.00
2023-05-09T05:18:56.428Z,100.00
2023-05-09T05:21:24.340Z,100.00
2023-05-09T05:23:53.891Z,100.00
2023-05-09T05:26:22.216Z,100.00
2023-05-09T05:28:55.332Z,100.00
2023-05-09T05:31:27.315Z,100.00
2023-05-09T05:33:57.775Z,100.00
2023-05-09T05:36:25.813Z,100.00
2023-05-09T05:38:54.900Z,100.00
2023-05-09T05:41:23.428Z,100.00
2023-05-09T05:43:54.107Z,100.00
2023-05-09T05:46:22.538Z,100.00
2023-05-09T05:48:50.364Z,100.00
2023-05-09T05:51:18.212Z,100.00
2023-05-09T05:53:46.855Z,100.00
2023-05-09T05:56:16.045Z,100.00
2023-05-09T05:58:43.873Z,100.00
2023-05-09T06:01:12.011Z,100.00
2023-05-09T06:03:39.916Z,100.00
2023-05-09T06:06:08.477Z,100.00
2023-05-09T06:08:36.273Z,100.00
2023-05-09T06:11:05.812Z,100.00
2023-05-09T06:13:35.078Z,100.00
2023-05-09T06:16:18.733Z,100.00
2023-05-09T06:18:49.928Z,100.00
2023-05-09T06:21:17.702Z,100.00
2023-05-09T06:23:57.741Z,100.00
2023-05-09T06:26:33.464Z,100.00
2023-05-09T06:29:02.652Z,100.00
2023-05-09T06:31:31.358Z,100.00
2023-05-09T06:33:59.232Z,100.00
2023-05-09T06:36:26.985Z,100.00
2023-05-09T06:38:54.721Z,100.00
2023-05-09T06:41:22.555Z,100.00
2023-05-09T06:43:50.367Z,100.00
2023-05-09T06:46:19.626Z,100.00
2023-05-09T06:48:47.476Z,100.00
2023-05-09T06:51:15.486Z,100.00
2023-05-09T06:53:43.251Z,100.00
2023-05-09T06:56:12.742Z,100.00
2023-05-09T06:58:40.807Z,100.00
2023-05-09T07:01:08.717Z,100.00
2023-05-09T07:03:37.921Z,100.00
2023-05-09T07:06:05.980Z,100.00
2023-05-09T07:08:33.743Z,100.00
2023-05-09T07:11:01.650Z,100.00
2023-05-09T07:13:29.392Z,100.00
2023-05-09T07:15:57.687Z,100.00
2023-05-09T07:18:25.507Z,100.00
2023-05-09T07:20:54.707Z,100.00
2023-05-09T07:23:22.499Z,100.00
2023-05-09T07:25:50.290Z,100.00
2023-05-09T07:28:19.137Z,100.00
2023-05-09T07:30:46.951Z,100.00
2023-05-09T07:33:14.771Z,100.00
2023-05-09T07:35:42.582Z,100.00
2023-05-09T07:38:12.116Z,100.00
2023-05-09T07:40:39.904Z,100.00
2023-05-09T07:43:07.711Z,100.00
2023-05-09T07:45:36.542Z,100.00
2023-05-09T07:48:04.607Z,100.00
2023-05-09T07:50:32.492Z,100.00
2023-05-09T07:53:00.448Z,100.00
2023-05-09T07:55:29.616Z,100.00
2023-05-09T07:57:57.507Z,100.00
2023-05-09T08:00:25.723Z,100.00
2023-05-09T08:02:54.009Z,100.00
2023-05-09T08:05:22.069Z,100.00
2023-05-09T08:07:49.824Z,100.00
2023-05-09T08:10:17.630Z,100.00
2023-05-09T08:12:46.826Z,100.00
2023-05-09T08:15:14.755Z,100.00
2023-05-09T08:17:42.724Z,100.00
2023-05-09T08:20:11.965Z,100.00
2023-05-09T08:22:41.171Z,100.00
2023-05-09T08:25:09.837Z,100.00
2023-05-09T08:27:37.586Z,100.00
2023-05-09T08:30:08.181Z,100.00
2023-05-09T08:32:36.125Z,100.00
2023-05-09T08:35:04.042Z,100.00
2023-05-09T08:37:31.881Z,100.00
2023-05-09T08:39:59.653Z,100.00
2023-05-09T08:42:28.540Z,100.00
2023-05-09T08:44:56.445Z,100.00
2023-05-09T08:47:26.370Z,100.00
2023-05-09T08:49:54.656Z,100.00
2023-05-09T08:52:22.922Z,100.00
2023-05-09T08:54:51.484Z,100.00
2023-05-09T08:57:19.452Z,100.00
2023-05-09T08:59:47.331Z,100.00
2023-05-09T09:02:15.926Z,100.00
2023-05-09T09:04:46.077Z,100.00
2023-05-09T09:07:16.218Z,100.00
2023-05-09T09:09:46.985Z,100.00
2023-05-09T09:12:16.388Z,100.00
2023-05-09T09:14:48.967Z,100.00
2023-05-09T09:17:20.636Z,100.00
2023-05-09T09:19:51.220Z,100.00
2023-05-09T09:22:20.812Z,100.00
2023-05-09T09:24:48.773Z,100.00
2023-05-09T09:27:16.861Z,100.00
2023-05-09T09:29:44.622Z,100.00
2023-05-09T09:32:12.479Z,100.00
2023-05-09T09:34:40.417Z,100.00
2023-05-09T09:37:09.587Z,100.00
2023-05-09T09:39:37.321Z,100.00
2023-05-09T09:42:12.128Z,100.00
2023-05-09T09:44:39.885Z,100.00
2023-05-09T09:47:11.461Z,100.00
2023-05-09T09:49:46.314Z,100.00
2023-05-09T09:52:24.011Z,100.00
2023-05-09T09:54:52.126Z,100.00
2023-05-09T09:57:35.059Z,100.00
2023-05-09T10:00:06.018Z,100.00
2023-05-09T10:02:34.020Z,100.00
2023-05-09T10:05:08.417Z,100.00
2023-05-09T10:07:37.534Z,100.00
2023-05-09T10:10:06.860Z,100.00
2023-05-09T10:12:35.577Z,100.00
2023-05-09T10:15:05.395Z,100.00
2023-05-09T10:17:33.581Z,100.00
2023-05-09T10:20:04.190Z,100.00
2023-05-09T10:22:34.316Z,100.00
2023-05-09T10:25:07.336Z,100.00
2023-05-09T10:27:37.183Z,100.00
2023-05-09T10:30:10.423Z,100.00
2023-05-09T10:32:50.732Z,100.00
2023-05-09T10:35:20.441Z,100.00
2023-05-09T10:37:49.310Z,100.00
2023-05-09T10:40:20.485Z,100.00
2023-05-09T10:42:51.252Z,100.00
2023-05-09T10:45:21.014Z,100.00
2023-05-09T10:47:50.693Z,100.00
2023-05-09T10:50:19.421Z,100.00
2023-05-09T10:53:06.201Z,100.00
2023-05-09T10:55:50.773Z,100.00
2023-05-09T10:58:24.820Z,100.00
2023-05-09T11:00:55.277Z,100.00
2023-05-09T11:03:25.861Z,100.00
2023-05-09T11:05:55.762Z,100.00
2023-05-09T11:08:26.217Z,100.00
2023-05-09T11:10:57.142Z,100.00
2023-05-09T11:13:27.420Z,100.00
2023-05-09T11:16:12.248Z,100.00
2023-05-09T11:18:53.734Z,100.00
2023-05-09T11:21:22.295Z,100.00
2023-05-09T11:23:52.410Z,100.00
2023-05-09T11:26:30.485Z,100.00
2023-05-09T11:29:00.786Z,98.64
2023-05-09T11:31:28.626Z,89.10
2023-05-09T11:34:04.815Z,100.00
2023-05-09T11:36:33.814Z,100.00
2023-05-09T11:39:05.262Z,100.00
2023-05-09T11:41:40.609Z,93.93
2023-05-09T11:44:19.087Z,99.88
2023-05-09T11:46:47.862Z,100.00
2023-05-09T11:49:17.031Z,99.42
2023-05-09T11:51:44.900Z,96.40
2023-05-09T11:54:14.824Z,86.98
2023-05-09T11:56:44.163Z,100.00
2023-05-09T11:59:14.669Z,99.80
2023-05-09T12:01:42.688Z,100.00
2023-05-09T12:04:10.613Z,100.00
2023-05-09T12:06:38.510Z,98.56
2023-05-09T12:09:06.628Z,94.08
2023-05-09T12:11:37.027Z,100.00
2023-05-09T12:14:06.383Z,84.96
2023-05-09T12:16:34.275Z,92.05
2023-05-09T12:19:02.212Z,93.19
2023-05-09T12:21:29.995Z,92.47
2023-05-09T12:23:58.137Z,91.86
2023-05-09T12:26:27.073Z,96.31
2023-05-09T12:28:55.316Z,100.00
2023-05-09T12:31:24.680Z,94.43
2023-05-09T12:33:52.808Z,100.00
2023-05-09T12:36:20.685Z,96.02
2023-05-09T12:38:55.192Z,100.00
2023-05-09T12:41:37.022Z,100.00
2023-05-09T12:44:10.006Z,88.48
2023-05-09T12:46:39.200Z,100.00
2023-05-09T12:49:07.223Z,88.87
2023-05-09T12:51:34.998Z,88.12
2023-05-09T12:54:05.424Z,81.14
2023-05-09T12:56:35.811Z,87.95
2023-05-09T12:59:03.599Z,86.28
2023-05-09T13:01:31.709Z,85.39
2023-05-09T13:04:06.198Z,87.32
2023-05-09T13:06:35.666Z,76.86
2023-05-09T13:09:06.279Z,82.17
2023-05-09T13:11:34.354Z,76.11
2023-05-09T13:14:04.151Z,81.30
2023-05-09T13:16:32.032Z,76.71
2023-05-09T13:19:01.509Z,75.73
2023-05-09T13:21:30.720Z,84.71
2023-05-09T13:23:58.568Z,76.87
2023-05-09T13:26:27.241Z,83.99
2023-05-09T13:28:55.143Z,78.53
2023-05-09T13:31:23.492Z,71.77
2023-05-09T13:33:52.121Z,79.96
2023-05-09T13:36:20.483Z,86.09
2023-05-09T13:38:49.601Z,78.05
2023-05-09T13:41:20.785Z,76.04
2023-05-09T13:43:48.667Z,75.60
2023-05-09T13:46:16.531Z,80.34
2023-05-09T13:48:44.556Z,87.26
2023-05-09T13:51:12.535Z,86.24
2023-05-09T13:53:40.499Z,90.33
2023-05-09T13:56:10.293Z,81.91
2023-05-09T13:58:38.140Z,71.48
2023-05-09T14:01:06.414Z,82.10
2023-05-09T14:03:34.448Z,79.71
2023-05-09T14:06:02.339Z,77.65
2023-05-09T14:08:30.224Z,73.28
2023-05-09T14:10:57.979Z,77.00
2023-05-09T14:13:27.340Z,72.18
2023-05-09T14:15:55.170Z,78.53
2023-05-09T14:18:23.208Z,79.74
2023-05-09T14:20:52.294Z,77.46
2023-05-09T14:23:22.292Z,82.29
2023-05-09T14:25:50.319Z,77.18
2023-05-09T14:28:18.313Z,75.31
2023-05-09T14:30:47.868Z,68.30
2023-05-09T14:33:15.977Z,64.36
2023-05-09T14:35:43.805Z,65.90
2023-05-09T14:38:13.106Z,73.09
2023-05-09T14:40:41.084Z,65.75
2023-05-09T14:43:09.590Z,67.48
2023-05-09T14:45:37.671Z,81.89
2023-05-09T14:48:07.066Z,70.43
2023-05-09T14:50:35.035Z,66.95
2023-05-09T14:53:03.712Z,76.35
2023-05-09T14:55:31.676Z,68.31
2023-05-09T14:57:59.543Z,67.96
2023-05-09T15:00:28.436Z,65.05
2023-05-09T15:02:56.819Z,64.21
2023-05-09T15:05:26.292Z,63.58
2023-05-09T15:07:54.253Z,65.46
2023-05-09T15:10:22.191Z,62.61
2023-05-09T15:12:50.069Z,67.71
2023-05-09T15:15:20.048Z,67.39
2023-05-09T15:17:48.451Z,70.07
2023-05-09T15:20:17.691Z,71.41
2023-05-09T15:22:48.759Z,76.34
2023-05-09T15:25:17.433Z,75.92
2023-05-09T15:27:45.430Z,71.60
2023-05-09T15:30:14.234Z,70.72
2023-05-09T15:32:42.259Z,68.39
2023-05-09T15:35:10.514Z,75.41
2023-05-09T15:37:38.705Z,69.62
2023-05-09T15:40:09.389Z,72.70
2023-05-09T15:42:38.635Z,73.90
2023-05-09T15:45:07.333Z,74.97
2023-05-09T15:47:35.276Z,70.44
2023-05-09T15:50:03.258Z,78.06
2023-05-09T15:52:31.203Z,74.08
2023-05-09T15:54:59.614Z,81.13
2023-05-09T15:57:28.879Z,73.72
2023-05-09T15:59:56.771Z,72.85
2023-05-09T16:02:24.767Z,72.03
2023-05-09T16:04:52.744Z,73.77
2023-05-09T16:07:20.973Z,77.38
2023-05-09T16:09:48.792Z,74.60
2023-05-09T16:12:16.621Z,79.20
2023-05-09T16:14:45.756Z,80.19
2023-05-09T16:17:13.513Z,83.71
2023-05-09T16:19:41.307Z,81.89
2023-05-09T16:22:09.088Z,84.08
2023-05-09T16:24:37.358Z,82.69
2023-05-09T16:27:05.134Z,85.25
2023-05-09T16:29:32.888Z,85.09
2023-05-09T16:32:02.220Z,89.67
2023-05-09T16:34:30.278Z,89.42
2023-05-09T16:36:58.133Z,91.09
2023-05-09T16:39:27.904Z,95.39
2023-05-09T16:41:56.295Z,97.37
2023-05-09T16:44:25.132Z,99.58
2023-05-09T16:46:53.156Z,100.00
2023-05-09T16:49:22.295Z,98.09
2023-05-09T16:51:50.091Z,100.00
2023-05-09T16:54:17.820Z,100.00
2023-05-09T16:56:45.581Z,100.00
2023-05-09T16:59:13.365Z,100.00
2023-05-09T17:01:41.899Z,100.00
2023-05-09T17:04:09.907Z,100.00
2023-05-09T17:06:39.110Z,100.00
2023-05-09T17:09:07.024Z,100.00
2023-05-09T17:11:34.838Z,100.00
2023-05-09T17:14:03.307Z,100.00
2023-05-09T17:16:31.137Z,100.00
2023-05-09T17:18:59.261Z,100.00
2023-05-09T17:21:27.732Z,100.00
2023-05-09T17:23:56.936Z,100.00
2023-05-09T17:26:25.848Z,100.00
2023-05-09T17:28:53.728Z,100.00
2023-05-09T17:31:21.598Z,100.00
2023-05-09T17:33:49.512Z,100.00
2023-05-09T17:36:17.334Z,100.00
2023-05-09T17:38:45.125Z,100.00
2023-05-09T17:41:14.342Z,100.00
2023-05-09T17:43:42.141Z,100.00
2023-05-09T17:46:10.469Z,100.00
2023-05-09T17:48:38.737Z,100.00
2023-05-09T17:51:07.083Z,100.00
2023-05-09T17:53:34.890Z,100.00
2023-05-09T17:56:02.958Z,100.00
2023-05-09T17:58:32.122Z,100.00
2023-05-09T18:00:59.937Z,100.00
2023-05-09T18:03:28.647Z,100.00
2023-05-09T18:05:57.131Z,100.00
2023-05-09T18:08:25.024Z,100.00
2023-05-09T18:10:54.506Z,100.00
2023-05-09T18:13:22.514Z,100.00
2023-05-09T18:15:53.969Z,100.00
2023-05-09T18:18:22.284Z,100.00
2023-05-09T18:20:50.253Z,100.00
2023-05-09T18:23:18.076Z,100.00
2023-05-09T18:25:45.874Z,100.00
2023-05-09T18:28:13.630Z,100.00
2023-05-09T18:30:41.473Z,100.00
2023-05-09T18:33:10.629Z,100.00
2023-05-09T18:35:38.400Z,100.00
2023-05-09T18:38:06.261Z,100.00
2023-05-09T18:40:34.031Z,100.00
2023-05-09T18:43:01.832Z,100.00
2023-05-09T18:45:30.787Z,100.00
2023-05-09T18:47:58.694Z,100.00
2023-05-09T18:50:27.863Z,100.00
2023-05-09T18:52:55.950Z,100.00
2023-05-09T18:55:24.066Z,100.00
2023-05-09T18:57:51.953Z,100.00
2023-05-09T19:00:19.864Z,100.00
2023-05-09T19:02:47.629Z,100.00
2023-05-09T19:05:15.781Z,100.00
2023-05-09T19:07:44.947Z,100.00
2023-05-09T19:10:13.168Z,100.00
2023-05-09T19:12:41.607Z,100.00
2023-05-09T19:15:10.880Z,100.00
2023-05-09T19:17:38.966Z,100.00
2023-05-09T19:20:08.374Z,100.00
2023-05-09T19:22:36.257Z,100.00
2023-05-09T19:25:05.937Z,100.00
2023-05-09T19:27:33.825Z,100.00
2023-05-09T19:30:01.869Z,100.00
2023-05-09T19:32:30.340Z,100.00
2023-05-09T19:34:58.689Z,100.00
2023-05-09T19:37:26.587Z,100.00
2023-05-09T19:39:54.360Z,100.00
2023-05-09T19:42:23.479Z,100.00
2023-05-09T19:44:52.377Z,100.00
2023-05-09T19:47:20.255Z,100.00
2023-05-09T19:49:48.024Z,100.00
2023-05-09T19:52:15.761Z,100.00
2023-05-09T19:54:43.542Z,100.00
2023-05-09T19:57:12.376Z,100.00
2023-05-09T19:59:41.495Z,100.00
2023-05-09T20:02:09.670Z,100.00
2023-05-09T20:04:37.829Z,100.00
2023-05-09T20:07:05.921Z,100.00
2023-05-09T20:09:33.669Z,100.00
2023-05-09T20:12:03.450Z,100.00
2023-05-09T20:14:31.748Z,100.00
2023-05-09T20:17:00.870Z,100.00
2023-05-09T20:19:28.813Z,100.00
2023-05-09T20:21:56.692Z,100.00
2023-05-09T20:24:24.463Z,100.00
2023-05-09T20:26:52.266Z,100.00
2023-05-09T20:29:20.154Z,100.00
2023-05-09T20:31:48.297Z,100.00
2023-05-09T20:34:19.574Z,100.00
2023-05-09T20:36:50.753Z,100.00
2023-05-09T20:39:18.713Z,100.00
2023-05-09T20:41:46.770Z,100.00
2023-05-09T20:44:15.785Z,100.00
2023-05-09T20:46:43.541Z,100.00
2023-05-09T20:49:11.547Z,100.00
2023-05-09T20:51:40.790Z,100.00
2023-05-09T20:54:08.562Z,100.00
2023-05-09T20:56:36.373Z,100.00
2023-05-09T20:59:04.635Z,100.00
2023-05-09T21:01:35.598Z,100.00
2023-05-09T21:04:03.997Z,100.00
2023-05-09T21:06:31.854Z,100.00
2023-05-09T21:09:00.945Z,100.00
2023-05-09T21:11:28.773Z,100.00
2023-05-09T21:13:56.516Z,100.00
2023-05-09T21:16:24.274Z,100.00
2023-05-09T21:18:52.054Z,100.00
2023-05-09T21:21:19.809Z,100.00
2023-05-09T21:23:47.617Z,100.00
2023-05-09T21:26:17.158Z,100.00
2023-05-09T21:28:44.919Z,100.00
2023-05-09T21:31:12.715Z,100.00
2023-05-09T21:33:40.651Z,100.00
2023-05-09T21:36:09.129Z,100.00
2023-05-09T21:38:36.896Z,100.00
2023-05-09T21:41:04.715Z,100.00
2023-05-09T21:43:33.867Z,100.00
2023-05-09T21:46:01.676Z,100.00
2023-05-09T21:48:29.593Z,100.00
2023-05-09T21:50:57.367Z,100.00
2023-05-09T21:53:25.411Z,100.00
2023-05-09T21:55:53.210Z,100.00
2023-05-09T21:58:21.008Z,100.00
2023-05-09T22:00:50.127Z,100.00
2023-05-09T22:03:17.974Z,100.00
2023-05-09T22:05:46.065Z,100.00
2023-05-09T22:08:13.872Z,100.00
2023-05-09T22:10:41.902Z,100.00
2023-05-09T22:13:09.769Z,100.00
2023-05-09T22:15:37.697Z,100.00
2023-05-09T22:18:07.095Z,100.00
2023-05-09T22:20:34.950Z,100.00
2023-05-09T22:23:03.172Z,100.00
2023-05-09T22:25:31.124Z,100.00
2023-05-09T22:27:59.088Z,100.00
2023-05-09T22:30:27.111Z,100.00
2023-05-09T22:32:54.958Z,100.00
2023-05-09T22:35:24.461Z,100.00
2023-05-09T22:37:52.381Z,100.00
2023-05-09T22:40:20.263Z,100.00
2023-05-09T22:42:48.143Z,100.00
2023-05-09T22:45:15.954Z,100.00
2023-05-09T22:47:44.527Z,100.00
2023-05-09T22:50:12.940Z,100.00
2023-05-09T22:52:42.206Z,100.00
2023-05-09T22:55:10.355Z,100.00
2023-05-09T22:57:38.124Z,100.00
2023-05-09T23:00:07.251Z,100.00
2023-05-09T23:02:35.124Z,100.00
2023-05-09T23:05:03.297Z,100.00
2023-05-09T23:07:31.212Z,100.00
2023-05-09T23:10:00.525Z,100.00
2023-05-09T23:12:28.292Z,100.00
2023-05-09T23:14:56.076Z,100.00
2023-05-09T23:17:24.389Z,100.00
2023-05-09T23:19:52.232Z,100.00
2023-05-09T23:22:20.065Z,100.00
2023-05-09T23:24:48.050Z,100.00
2023-05-09T23:27:17.146Z,100.00
2023-05-09T23:29:44.897Z,100.00
2023-05-09T23:32:12.622Z,100.00
2023-05-09T23:34:40.382Z,100.00
2023-05-09T23:37:08.384Z,100.00
2023-05-09T23:39:36.209Z,100.00
2023-05-09T23:42:04.066Z,100.00
2023-05-09T23:44:33.183Z,100.00
2023-05-09T23:47:01.847Z,100.00
2023-05-09T23:49:30.158Z,100.00
2023-05-09T23:51:57.954Z,100.00
2023-05-09T23:54:26.895Z,100.00
2023-05-09T23:56:56.319Z,100.00
2023-05-09T23:59:24.127Z,100.00
